createdAt,value
2022-11-19T00:00:35.714Z,65.25
2022-11-19T00:03:40.254Z,65.43
2022-11-19T00:06:43.027Z,65.30
2022-11-19T00:09:45.862Z,65.56
2022-11-19T00:12:54.587Z,65.48
2022-11-19T00:16:02.652Z,65.61
2022-11-19T00:19:05.485Z,65.91
2022-11-19T00:22:09.386Z,65.77
2022-11-19T00:25:12.539Z,65.57
2022-11-19T00:28:15.317Z,65.49
2022-11-19T00:31:18.613Z,65.80
2022-11-19T00:34:21.442Z,65.95
2022-11-19T00:37:24.257Z,65.66
2022-11-19T00:40:27.070Z,65.73
2022-11-19T00:43:48.601Z,65.54
2022-11-19T00:46:51.838Z,66.12
2022-11-19T00:49:54.721Z,65.71
2022-11-19T00:52:57.504Z,65.67
2022-11-19T00:56:02.265Z,66.12
2022-11-19T00:59:05.505Z,65.80
2022-11-19T01:02:08.306Z,66.14
2022-11-19T01:05:39.012Z,65.94
2022-11-19T01:08:41.941Z,66.19
2022-11-19T01:11:45.913Z,66.61
2022-11-19T01:14:49.017Z,66.77
2022-11-19T01:17:51.903Z,66.33
2022-11-19T01:20:55.165Z,66.57
2022-11-19T01:23:58.864Z,66.36
2022-11-19T01:27:01.679Z,66.54
2022-11-19T01:30:05.617Z,66.56
2022-11-19T01:33:09.607Z,66.38
2022-11-19T01:36:18.931Z,66.64
2022-11-19T01:39:21.917Z,66.74
2022-11-19T01:42:47.642Z,66.46
2022-11-19T01:45:52.920Z,66.56
2022-11-19T01:49:25.349Z,66.63
2022-11-19T01:52:28.185Z,66.32
2022-11-19T01:55:31.742Z,66.42
2022-11-19T01:58:40.392Z,66.91
2022-11-19T02:01:44.801Z,67.30
2022-11-19T02:04:52.435Z,67.24
2022-11-19T02:07:57.987Z,67.43
2022-11-19T02:11:14.394Z,67.36
2022-11-19T02:14:58.134Z,67.31
2022-11-19T02:18:09.716Z,67.26
2022-11-19T02:21:38.427Z,67.21
2022-11-19T02:24:55.920Z,67.29
2022-11-19T02:28:31.074Z,67.35
2022-11-19T02:31:53.175Z,67.33
2022-11-19T02:35:08.538Z,67.15
2022-11-19T02:38:15.796Z,67.29
2022-11-19T02:41:36.485Z,67.41
2022-11-19T02:44:59.020Z,67.51
2022-11-19T02:48:10.113Z,67.77
2022-11-19T02:51:15.777Z,67.95
2022-11-19T02:54:18.928Z,67.89
2022-11-19T02:57:21.719Z,67.89
2022-11-19T03:00:44.280Z,67.80
2022-11-19T03:04:06.869Z,67.86
2022-11-19T03:07:15.316Z,67.91
2022-11-19T03:10:22.592Z,67.67
2022-11-19T03:13:52.569Z,67.91
2022-11-19T03:16:58.763Z,67.63
2022-11-19T03:20:07.688Z,67.70
2022-11-19T03:23:34.327Z,67.62
2022-11-19T03:26:42.447Z,67.58
2022-11-19T03:29:50.484Z,68.01
2022-11-19T03:32:58.302Z,68.00
2022-11-19T03:36:16.500Z,68.20
2022-11-19T03:39:21.684Z,68.13
2022-11-19T03:42:27.182Z,67.96
2022-11-19T03:45:38.052Z,68.23
2022-11-19T03:48:45.374Z,68.21
2022-11-19T03:51:58.215Z,68.08
2022-11-19T03:55:01.095Z,68.19
2022-11-19T03:58:06.185Z,68.24
2022-11-19T04:01:09.852Z,68.56
2022-11-19T04:04:31.572Z,68.22
2022-11-19T04:07:36.644Z,67.81
2022-11-19T04:10:39.799Z,68.35
2022-11-19T04:13:42.652Z,68.62
2022-11-19T04:16:46.055Z,68.45
2022-11-19T04:19:49.026Z,68.47
2022-11-19T04:22:52.243Z,68.42
2022-11-19T04:25:55.037Z,68.55
2022-11-19T04:28:59.491Z,68.55
2022-11-19T04:32:02.339Z,68.61
2022-11-19T04:35:05.621Z,68.70
2022-11-19T04:38:08.480Z,68.35
2022-11-19T04:41:11.289Z,68.25
2022-11-19T04:44:14.138Z,68.41
2022-11-19T04:47:17.143Z,68.50
2022-11-19T04:50:21.556Z,68.54
2022-11-19T04:53:24.467Z,68.43
2022-11-19T04:56:27.248Z,68.56
2022-11-19T04:59:30.058Z,68.51
2022-11-19T05:02:32.961Z,68.51
2022-11-19T05:05:35.766Z,68.51
2022-11-19T05:08:38.788Z,68.47
2022-11-19T05:11:43.420Z,68.49
2022-11-19T05:14:47.525Z,68.43
2022-11-19T05:17:50.460Z,68.60
2022-11-19T05:20:53.239Z,68.52
2022-11-19T05:23:56.054Z,68.53
2022-11-19T05:26:58.911Z,68.49
2022-11-19T05:30:01.753Z,68.56
2022-11-19T05:33:05.883Z,68.73
2022-11-19T05:36:09.659Z,68.52
2022-11-19T05:39:16.159Z,68.89
2022-11-19T05:42:23.243Z,68.73
2022-11-19T05:45:26.063Z,69.29
2022-11-19T05:48:29.603Z,69.18
2022-11-19T05:51:32.692Z,68.76
2022-11-19T05:54:36.200Z,69.04
2022-11-19T05:57:39.010Z,68.78
2022-11-19T06:00:41.773Z,68.84
2022-11-19T06:03:44.744Z,68.96
2022-11-19T06:06:47.514Z,68.89
2022-11-19T06:09:50.357Z,69.17
2022-11-19T06:12:53.243Z,69.26
2022-11-19T06:15:57.674Z,69.18
2022-11-19T06:19:00.685Z,69.23
2022-11-19T06:22:04.083Z,68.74
2022-11-19T06:25:08.028Z,68.77
2022-11-19T06:28:10.836Z,68.88
2022-11-19T06:31:13.574Z,68.66
2022-11-19T06:34:16.456Z,68.55
2022-11-19T06:37:20.998Z,68.54
2022-11-19T06:40:23.908Z,68.43
2022-11-19T06:43:26.691Z,68.24
2022-11-19T06:46:29.720Z,68.15
2022-11-19T06:49:32.463Z,68.26
2022-11-19T06:52:35.865Z,68.40
2022-11-19T06:55:38.770Z,68.53
2022-11-19T06:58:43.087Z,68.61
2022-11-19T07:01:45.986Z,68.78
2022-11-19T07:04:49.247Z,69.10
2022-11-19T07:07:52.044Z,69.14
2022-11-19T07:10:56.593Z,69.20
2022-11-19T07:14:00.113Z,69.17
2022-11-19T07:17:03.815Z,69.39
2022-11-19T07:20:07.714Z,69.28
2022-11-19T07:23:11.292Z,69.36
2022-11-19T07:26:15.568Z,69.74
2022-11-19T07:29:18.862Z,69.92
2022-11-19T07:32:21.949Z,70.04
2022-11-19T07:35:25.008Z,69.94
2022-11-19T07:38:32.708Z,69.69
2022-11-19T07:41:57.677Z,69.66
2022-11-19T07:45:00.539Z,69.42
2022-11-19T07:48:03.419Z,69.46
2022-11-19T07:51:06.254Z,69.88
2022-11-19T07:54:11.880Z,69.76
2022-11-19T07:57:14.791Z,69.78
2022-11-19T08:00:18.023Z,69.60
2022-11-19T08:03:21.045Z,69.49
2022-11-19T08:06:26.584Z,69.48
2022-11-19T08:09:29.512Z,69.33
2022-11-19T08:12:33.282Z,69.44
2022-11-19T08:15:36.126Z,69.74
2022-11-19T08:18:39.484Z,69.47
2022-11-19T08:21:45.407Z,69.37
2022-11-19T08:24:48.785Z,69.16
2022-11-19T08:27:51.554Z,69.02
2022-11-19T08:30:54.510Z,68.89
2022-11-19T08:33:57.586Z,68.92
2022-11-19T08:37:00.526Z,68.97
2022-11-19T08:40:04.980Z,68.89
2022-11-19T08:43:08.280Z,68.80
2022-11-19T08:46:11.202Z,69.10
2022-11-19T08:49:14.198Z,69.05
2022-11-19T08:52:17.205Z,68.86
2022-11-19T08:55:20.046Z,68.82
2022-11-19T08:58:23.416Z,69.03
2022-11-19T09:01:26.219Z,68.99
2022-11-19T09:04:29.251Z,68.91
2022-11-19T09:07:32.118Z,68.95
2022-11-19T09:10:37.720Z,68.92
2022-11-19T09:13:41.319Z,69.34
2022-11-19T09:16:44.406Z,69.03
2022-11-19T09:19:47.308Z,68.95
2022-11-19T09:22:51.195Z,68.97
2022-11-19T09:26:00.714Z,68.89
2022-11-19T09:29:03.647Z,68.77
2022-11-19T09:32:06.526Z,69.00
2022-11-19T09:35:09.403Z,69.01
2022-11-19T09:38:12.684Z,68.78
2022-11-19T09:41:44.166Z,69.07
2022-11-19T09:45:05.382Z,68.90
2022-11-19T09:48:29.667Z,69.08
2022-11-19T09:51:34.496Z,69.11
2022-11-19T09:54:48.481Z,68.82
2022-11-19T09:57:57.869Z,68.71
2022-11-19T10:01:01.662Z,68.68
2022-11-19T10:04:04.894Z,68.41
2022-11-19T10:07:11.769Z,67.91
2022-11-19T10:10:42.452Z,68.23
2022-11-19T10:14:04.565Z,67.93
2022-11-19T10:17:22.125Z,66.61
2022-11-19T10:20:55.200Z,66.85
2022-11-19T10:24:11.825Z,66.30
2022-11-19T10:27:32.684Z,66.34
2022-11-19T10:30:36.203Z,65.84
2022-11-19T10:33:49.209Z,65.15
2022-11-19T10:37:00.265Z,64.91
2022-11-19T10:40:17.327Z,64.33
2022-11-19T10:43:38.776Z,64.17
2022-11-19T10:46:42.296Z,63.93
2022-11-19T10:49:45.562Z,63.06
2022-11-19T10:52:56.095Z,63.77
2022-11-19T10:56:03.443Z,64.36
2022-11-19T10:59:28.299Z,64.22
2022-11-19T11:02:36.212Z,63.08
2022-11-19T11:06:07.737Z,62.56
2022-11-19T11:09:14.161Z,63.44
2022-11-19T11:12:40.780Z,61.83
2022-11-19T11:15:47.416Z,59.15
2022-11-19T11:18:53.970Z,59.30
2022-11-19T11:21:57.814Z,59.54
2022-11-19T11:25:06.772Z,59.23
2022-11-19T11:28:19.553Z,59.19
2022-11-19T11:31:37.770Z,59.21
2022-11-19T11:34:44.025Z,59.99
2022-11-19T11:37:49.515Z,59.41
2022-11-19T11:41:44.027Z,59.45
2022-11-19T11:44:37.254Z,60.91
2022-11-19T11:47:40.380Z,60.43
2022-11-19T11:50:47.335Z,59.43
2022-11-19T11:54:05.221Z,59.43
2022-11-19T11:57:23.062Z,59.08
2022-11-19T12:00:42.995Z,58.67
2022-11-19T12:03:57.824Z,58.38
2022-11-19T12:07:31.217Z,58.49
2022-11-19T12:11:22.344Z,58.97
2022-11-19T12:14:46.335Z,58.88
2022-11-19T12:18:09.136Z,59.97
2022-11-19T12:21:33.856Z,60.35
2022-11-19T12:25:01.856Z,61.60
2022-11-19T12:28:20.085Z,64.67
2022-11-19T12:32:23.251Z,67.50
2022-11-19T12:35:44.851Z,68.79
2022-11-19T12:38:56.876Z,68.63
2022-11-19T12:42:23.796Z,70.98
2022-11-19T12:46:08.725Z,70.67
2022-11-19T12:49:33.509Z,70.29
2022-11-19T12:53:14.655Z,69.43
2022-11-19T12:56:56.490Z,68.86
2022-11-19T13:00:14.966Z,68.65
2022-11-19T13:03:37.495Z,68.46
2022-11-19T13:07:10.608Z,68.97
2022-11-19T13:10:24.803Z,68.70
2022-11-19T13:13:33.372Z,68.42
2022-11-19T13:16:36.801Z,68.02
2022-11-19T13:19:40.354Z,67.38
2022-11-19T13:22:47.632Z,67.33
2022-11-19T13:25:59.583Z,66.88
2022-11-19T13:29:42.851Z,67.01
2022-11-19T13:32:59.132Z,66.76
2022-11-19T13:36:14.478Z,66.85
2022-11-19T13:40:08.395Z,66.55
2022-11-19T13:43:41.057Z,66.62
2022-11-19T13:46:55.106Z,66.94
2022-11-19T13:50:07.046Z,66.86
2022-11-19T13:53:22.928Z,66.74
2022-11-19T13:56:38.836Z,67.31
2022-11-19T13:59:47.823Z,66.86
2022-11-19T14:03:09.216Z,66.84
2022-11-19T14:06:44.312Z,66.87
2022-11-19T14:10:29.337Z,67.03
2022-11-19T14:13:54.821Z,66.85
2022-11-19T14:17:44.257Z,66.32
2022-11-19T14:21:05.936Z,66.32
2022-11-19T14:24:46.275Z,66.32
2022-11-19T14:27:49.135Z,66.31
2022-11-19T14:31:04.211Z,67.27
2022-11-19T14:34:26.962Z,66.65
2022-11-19T14:42:25.768Z,65.79
2022-11-19T14:45:28.715Z,65.44
2022-11-19T14:48:36.859Z,65.30
2022-11-19T14:51:41.674Z,64.78
2022-11-19T14:54:46.096Z,64.63
2022-11-19T14:58:21.534Z,64.54
2022-11-19T15:01:24.923Z,64.22
2022-11-19T15:04:38.417Z,64.37
2022-11-19T15:07:47.225Z,63.63
2022-11-19T15:11:02.285Z,62.90
2022-11-19T15:14:38.498Z,63.52
2022-11-19T15:17:41.746Z,62.49
2022-11-19T15:20:53.658Z,63.02
2022-11-19T15:24:28.570Z,63.06
2022-11-19T15:27:43.843Z,62.43
2022-11-19T15:30:58.209Z,62.52
2022-11-19T15:34:19.269Z,62.82
2022-11-19T15:37:54.614Z,62.63
2022-11-19T15:41:01.503Z,62.98
2022-11-19T15:44:12.743Z,63.15
2022-11-19T15:47:25.661Z,63.24
2022-11-19T15:50:29.208Z,63.68
2022-11-19T15:53:32.062Z,63.63
2022-11-19T15:56:38.879Z,63.23
2022-11-19T15:59:49.952Z,63.47
2022-11-19T16:02:53.704Z,63.17
2022-11-19T16:06:07.152Z,63.47
2022-11-19T16:09:18.186Z,62.80
2022-11-19T16:12:42.780Z,63.09
2022-11-19T16:16:09.452Z,63.15
2022-11-19T16:19:17.045Z,63.18
2022-11-19T16:22:21.394Z,62.89
2022-11-19T16:25:32.618Z,62.83
2022-11-19T16:28:36.190Z,62.34
2022-11-19T16:31:39.023Z,62.48
2022-11-19T16:34:42.268Z,62.74
2022-11-19T16:37:47.665Z,62.62
2022-11-19T16:41:10.303Z,62.40
2022-11-19T16:44:18.217Z,62.69
2022-11-19T16:47:30.512Z,62.98
2022-11-19T16:50:36.493Z,62.54
2022-11-19T16:53:47.263Z,62.59
2022-11-19T16:56:51.726Z,62.69
2022-11-19T17:00:13.185Z,62.14
2022-11-19T17:03:31.865Z,62.51
2022-11-19T17:06:37.475Z,62.44
2022-11-19T17:09:44.563Z,62.07
2022-11-19T17:13:18.570Z,62.39
2022-11-19T17:16:22.788Z,62.34
2022-11-19T17:19:26.964Z,62.34
2022-11-19T17:22:33.070Z,61.55
2022-11-19T17:25:44.840Z,61.94
2022-11-19T17:28:50.921Z,61.60
2022-11-19T17:31:55.636Z,61.24
2022-11-19T17:34:58.525Z,61.20
2022-11-19T17:38:08.425Z,61.33
2022-11-19T17:41:17.063Z,60.84
2022-11-19T17:44:39.520Z,60.30
2022-11-19T17:47:43.409Z,60.55
2022-11-19T17:50:46.201Z,60.42
2022-11-19T17:53:51.810Z,60.89
2022-11-19T17:56:54.812Z,60.42
2022-11-19T17:59:57.562Z,61.17
2022-11-19T18:03:03.030Z,61.33
2022-11-19T18:06:08.613Z,60.88
2022-11-19T18:09:11.532Z,60.77
2022-11-19T18:12:17.699Z,61.02
2022-11-19T18:15:21.226Z,60.81
2022-11-19T18:18:24.122Z,61.09
2022-11-19T18:21:27.705Z,61.34
2022-11-19T18:24:30.544Z,60.70
2022-11-19T18:27:33.362Z,61.42
2022-11-19T18:30:37.108Z,61.36
2022-11-19T18:33:41.970Z,61.32
2022-11-19T18:36:44.831Z,61.65
2022-11-19T18:39:47.951Z,61.56
2022-11-19T18:43:16.794Z,61.41
2022-11-19T18:46:19.796Z,61.49
2022-11-19T18:49:23.079Z,61.50
2022-11-19T18:52:26.263Z,61.83
2022-11-19T18:55:29.107Z,61.73
2022-11-19T18:58:32.630Z,61.71
2022-11-19T19:01:35.536Z,61.66
2022-11-19T19:04:38.735Z,61.54
2022-11-19T19:07:41.638Z,61.89
2022-11-19T19:10:44.388Z,61.58
2022-11-19T19:13:47.211Z,61.92
2022-11-19T19:16:51.165Z,61.86
2022-11-19T19:19:54.000Z,62.18
2022-11-19T19:22:56.944Z,61.93
2022-11-19T19:26:00.054Z,62.04
2022-11-19T19:29:03.556Z,62.53
2022-11-19T19:32:07.145Z,62.44
2022-11-19T19:35:10.151Z,62.89
2022-11-19T19:38:13.124Z,63.09
2022-11-19T19:41:23.885Z,62.92
2022-11-19T19:44:26.931Z,63.15
2022-11-19T19:47:30.586Z,63.22
2022-11-19T19:50:33.530Z,63.27
2022-11-19T19:53:38.004Z,63.47
2022-11-19T19:56:41.923Z,63.22
2022-11-19T20:00:00.333Z,63.24
2022-11-19T20:03:06.258Z,62.81
2022-11-19T20:06:19.296Z,62.79
2022-11-19T20:09:59.368Z,62.63
2022-11-19T20:13:34.724Z,62.39
2022-11-19T20:16:41.913Z,62.63
2022-11-19T20:19:45.099Z,62.73
2022-11-19T20:22:50.641Z,62.59
2022-11-19T20:26:00.775Z,62.83
2022-11-19T20:32:53.877Z,62.37
2022-11-19T20:37:33.931Z,62.11
2022-11-19T20:43:06.798Z,61.90
2022-11-19T20:47:23.075Z,61.28
2022-11-19T21:18:36.319Z,61.83
2022-11-19T21:21:41.803Z,61.81
2022-11-19T21:24:43.380Z,61.72
2022-11-19T21:27:44.776Z,61.85
2022-11-19T21:30:51.517Z,61.64
2022-11-19T21:33:54.368Z,61.86
2022-11-19T21:36:58.508Z,62.46
2022-11-19T21:40:00.024Z,63.54
2022-11-19T21:43:01.621Z,64.67
2022-11-19T21:46:08.794Z,66.24
2022-11-19T21:49:10.255Z,66.66
2022-11-19T21:52:11.721Z,67.78
2022-11-19T21:55:13.261Z,69.35
2022-11-19T21:58:16.634Z,70.42
2022-11-19T22:01:18.393Z,70.55
2022-11-19T22:04:19.859Z,71.33
2022-11-19T22:07:23.654Z,70.93
2022-11-19T22:10:29.139Z,71.25
2022-11-19T22:13:33.929Z,72.16
2022-11-19T22:16:38.449Z,71.45
2022-11-19T22:19:39.928Z,72.40
2022-11-19T22:22:44.699Z,71.91
2022-11-19T22:25:46.396Z,71.28
2022-11-19T22:28:47.938Z,71.64
2022-11-19T22:31:49.344Z,71.82
2022-11-19T22:34:52.020Z,72.09
2022-11-19T22:37:53.541Z,71.72
2022-11-19T22:41:03.229Z,71.15
2022-11-19T22:44:07.082Z,71.64
2022-11-19T22:47:08.517Z,71.14
2022-11-19T22:50:10.029Z,72.61
2022-11-19T22:53:11.659Z,72.84
2022-11-19T22:56:19.622Z,73.23
2022-11-19T22:59:21.335Z,74.08
2022-11-19T23:02:23.026Z,73.90
2022-11-19T23:05:24.984Z,73.97
2022-11-19T23:08:31.825Z,73.18
2022-11-19T23:11:52.080Z,72.81
2022-11-19T23:14:59.041Z,73.75
2022-11-19T23:18:00.557Z,73.35
2022-11-19T23:21:11.883Z,74.05
2022-11-19T23:24:13.475Z,74.79
2022-11-19T23:27:20.801Z,73.66
2022-11-19T23:30:23.554Z,74.43
2022-11-19T23:33:24.982Z,74.57
2022-11-19T23:36:35.649Z,74.32
2022-11-19T23:39:37.041Z,73.83
2022-11-19T23:42:38.474Z,74.62
2022-11-19T23:45:39.859Z,74.34
2022-11-19T23:48:45.454Z,74.49
2022-11-19T23:51:46.872Z,74.16
2022-11-19T23:54:48.281Z,74.49
2022-11-19T23:57:49.676Z,75.14
